createdAt,value
2019-01-25T00:01:14.447Z,-1.40
2019-01-25T00:03:43.583Z,-1.40
2019-01-25T00:06:13.097Z,-1.40
2019-01-25T00:11:17.983Z,-1.50
2019-01-25T00:13:48.103Z,-1.50
2019-01-25T00:16:17.139Z,-1.50
2019-01-25T00:18:46.557Z,-1.50
2019-01-25T00:21:46.302Z,-1.50
2019-01-25T00:24:16.470Z,-1.50
2019-01-25T00:26:45.936Z,-1.60
2019-01-25T00:29:15.073Z,-1.60
2019-01-25T00:31:44.343Z,-1.60
2019-01-25T00:34:13.498Z,-1.60
2019-01-25T00:36:43.423Z,-1.60
2019-01-25T00:39:12.777Z,-1.60
2019-01-25T00:41:42.185Z,-1.50
2019-01-25T00:45:14.340Z,-1.60
2019-01-25T00:47:43.664Z,-1.60
2019-01-25T00:50:16.262Z,-1.50
2019-01-25T00:52:45.403Z,-1.50
2019-01-25T00:55:14.503Z,-1.40
2019-01-25T00:57:44.283Z,-1.50
2019-01-25T01:00:34.681Z,-1.50
2019-01-25T01:03:04.695Z,-1.50
2019-01-25T01:05:37.483Z,-1.50
2019-01-25T01:08:06.933Z,-1.50
2019-01-25T01:10:35.964Z,-1.50
2019-01-25T01:13:05.956Z,-1.60
2019-01-25T01:15:35.367Z,-1.60
2019-01-25T01:18:08.677Z,-1.60
2019-01-25T01:20:38.515Z,-1.50
2019-01-25T01:23:07.631Z,-1.50
2019-01-25T01:26:34.316Z,-1.50
2019-01-25T01:29:03.451Z,-1.50
2019-01-25T01:31:32.830Z,-1.50
2019-01-25T01:34:04.156Z,-1.50
2019-01-25T01:36:33.153Z,-1.50
2019-01-25T01:39:04.105Z,-1.50
2019-01-25T01:41:33.469Z,-1.40
2019-01-25T01:44:02.515Z,-1.40
2019-01-25T01:46:31.697Z,-1.40
2019-01-25T01:49:02.165Z,-1.40
2019-01-25T01:51:31.434Z,-1.40
2019-01-25T01:54:07.188Z,-1.40
2019-01-25T01:56:36.516Z,-1.40
2019-01-25T01:59:05.629Z,-1.40
2019-01-25T02:01:35.306Z,-1.40
2019-01-25T02:04:07.675Z,-1.40
2019-01-25T02:06:36.971Z,-1.40
2019-01-25T02:09:07.995Z,-1.40
2019-01-25T02:11:37.095Z,-1.30
2019-01-25T02:17:18.005Z,-1.40
2019-01-25T02:19:47.068Z,-1.40
2019-01-25T02:22:16.023Z,-1.40
2019-01-25T02:24:46.524Z,-1.40
2019-01-25T02:27:15.556Z,-1.40
2019-01-25T02:29:51.597Z,-1.40
2019-01-25T02:32:20.617Z,-1.40
2019-01-25T02:34:49.637Z,-1.40
2019-01-25T02:37:19.002Z,-1.40
2019-01-25T02:39:48.368Z,-1.50
2019-01-25T02:42:17.459Z,-1.50
2019-01-25T02:44:46.708Z,-1.50
2019-01-25T02:47:15.802Z,-1.40
2019-01-25T02:49:46.516Z,-1.40
2019-01-25T02:52:15.468Z,-1.50
2019-01-25T02:54:44.853Z,-1.40
2019-01-25T02:57:14.112Z,-1.50
2019-01-25T02:59:44.010Z,-1.50
2019-01-25T03:02:13.684Z,-1.50
2019-01-25T03:04:42.718Z,-1.50
2019-01-25T03:07:12.589Z,-1.50
2019-01-25T03:09:45.694Z,-1.50
2019-01-25T03:12:17.708Z,-1.60
2019-01-25T03:14:47.612Z,-1.60
2019-01-25T03:17:18.438Z,-1.60
2019-01-25T03:19:48.184Z,-1.60
2019-01-25T03:22:17.456Z,-1.60
2019-01-25T03:24:46.409Z,-1.60
2019-01-25T03:27:15.653Z,-1.60
2019-01-25T03:29:45.152Z,-1.60
2019-01-25T03:32:14.459Z,-1.60
2019-01-25T03:34:45.089Z,-1.60
2019-01-25T03:37:14.173Z,-1.60
2019-01-25T03:39:43.496Z,-1.50
2019-01-25T03:42:12.542Z,-1.60
2019-01-25T03:44:41.697Z,-1.60
2019-01-25T03:47:10.805Z,-1.60
2019-01-25T03:49:46.178Z,-1.60
2019-01-25T03:52:15.495Z,-1.60
2019-01-25T03:54:44.543Z,-1.60
2019-01-25T03:57:14.351Z,-1.50
2019-01-25T03:59:43.783Z,-1.50
2019-01-25T04:02:12.822Z,-1.50
2019-01-25T04:04:42.537Z,-1.50
2019-01-25T04:07:11.573Z,-1.50
2019-01-25T04:09:40.686Z,-1.50
2019-01-25T04:12:09.727Z,-1.50
2019-01-25T04:14:38.741Z,-1.60
2019-01-25T04:17:09.598Z,-1.60
2019-01-25T04:19:38.905Z,-1.50
2019-01-25T04:22:07.987Z,-1.60
2019-01-25T04:24:37.672Z,-1.60
2019-01-25T04:27:07.572Z,-1.60
2019-01-25T04:32:10.992Z,-1.50
2019-01-25T04:34:40.096Z,-1.60
2019-01-25T04:37:09.169Z,-1.50
2019-01-25T04:39:38.152Z,-1.50
2019-01-25T04:42:07.560Z,-1.50
2019-01-25T04:44:37.420Z,-1.60
2019-01-25T04:47:06.813Z,-1.50
2019-01-25T04:49:37.906Z,-1.50
2019-01-25T04:52:13.083Z,-1.40
2019-01-25T04:54:42.127Z,-1.40
2019-01-25T04:57:11.234Z,-1.40
2019-01-25T04:59:40.746Z,-1.40
2019-01-25T05:02:10.050Z,-1.40
2019-01-25T05:04:38.953Z,-1.30
2019-01-25T05:07:08.173Z,-1.30
2019-01-25T05:10:13.671Z,-1.30
2019-01-25T05:12:43.668Z,-1.30
2019-01-25T05:15:14.670Z,-1.30
2019-01-25T05:17:46.132Z,-1.30
2019-01-25T05:20:15.012Z,-1.30
2019-01-25T05:22:44.295Z,-1.20
2019-01-25T05:25:18.286Z,-1.30
2019-01-25T05:27:47.218Z,-1.20
2019-01-25T05:30:18.044Z,-1.30
2019-01-25T05:32:46.946Z,-1.30
2019-01-25T05:35:16.435Z,-1.20
2019-01-25T05:37:45.338Z,-1.20
2019-01-25T05:40:24.537Z,-1.20
2019-01-25T05:42:53.773Z,-1.20
2019-01-25T05:45:22.775Z,-1.20
2019-01-25T05:47:53.771Z,-1.20
2019-01-25T05:50:22.701Z,-1.10
2019-01-25T05:52:51.928Z,-1.20
2019-01-25T05:55:22.430Z,-1.20
2019-01-25T05:58:02.679Z,-1.20
2019-01-25T06:00:34.666Z,-1.20
2019-01-25T06:03:08.973Z,-1.20
2019-01-25T06:05:37.944Z,-1.20
2019-01-25T06:08:29.110Z,-1.20
2019-01-25T06:11:02.326Z,-1.20
2019-01-25T06:13:31.566Z,-1.20
2019-01-25T06:16:00.572Z,-1.20
2019-01-25T06:18:31.283Z,-1.20
2019-01-25T06:21:02.518Z,-1.20
2019-01-25T06:23:31.439Z,-1.20
2019-01-25T06:26:01.082Z,-1.20
2019-01-25T06:28:30.156Z,-1.30
2019-01-25T06:30:59.670Z,-1.30
2019-01-25T06:33:29.892Z,-1.30
2019-01-25T06:35:59.574Z,-1.30
2019-01-25T06:38:28.475Z,-1.30
2019-01-25T06:40:57.485Z,-1.30
2019-01-25T06:43:26.519Z,-1.30
2019-01-25T06:45:55.579Z,-1.30
2019-01-25T06:48:24.968Z,-1.30
2019-01-25T06:50:54.801Z,-1.30
2019-01-25T06:53:25.086Z,-1.30
2019-01-25T06:55:54.304Z,-1.30
2019-01-25T06:58:49.640Z,-1.30
2019-01-25T07:01:37.041Z,-1.30
2019-01-25T07:04:06.622Z,-1.30
2019-01-25T07:06:35.874Z,-1.30
2019-01-25T07:09:09.285Z,-1.30
2019-01-25T07:11:42.298Z,-1.30
2019-01-25T07:14:08.987Z,-1.30
2019-01-25T07:16:37.906Z,-1.30
2019-01-25T07:19:06.862Z,-1.30
2019-01-25T07:21:35.837Z,-1.40
2019-01-25T07:24:06.012Z,-1.40
2019-01-25T07:26:35.868Z,-1.40
2019-01-25T07:29:05.615Z,-1.30
2019-01-25T07:31:34.610Z,-1.30
2019-01-25T07:34:03.595Z,-1.30
2019-01-25T07:36:32.996Z,-1.30
2019-01-25T07:39:08.443Z,-1.30
2019-01-25T07:41:40.435Z,-1.30
2019-01-25T07:44:09.697Z,-1.30
2019-01-25T07:46:41.916Z,-1.30
2019-01-25T07:49:10.833Z,-1.30
2019-01-25T07:51:39.860Z,-1.20
2019-01-25T07:54:08.915Z,-1.30
2019-01-25T07:56:37.964Z,-1.20
2019-01-25T07:59:07.330Z,-1.20
2019-01-25T08:01:37.509Z,-1.20
2019-01-25T08:04:09.744Z,-1.20
2019-01-25T08:06:38.984Z,-1.20
2019-01-25T08:09:09.615Z,-1.20
2019-01-25T08:11:40.275Z,-1.20
2019-01-25T08:14:12.899Z,-1.20
2019-01-25T08:16:41.935Z,-1.10
2019-01-25T08:19:11.460Z,-1.10
2019-01-25T08:21:42.229Z,-1.10
2019-01-25T08:24:11.158Z,-1.10
2019-01-25T08:26:40.006Z,-1.00
2019-01-25T08:29:09.012Z,-1.00
2019-01-25T08:31:39.163Z,-1.00
2019-01-25T08:34:08.252Z,-1.00
2019-01-25T08:36:37.496Z,-0.90
2019-01-25T08:39:09.588Z,-0.90
2019-01-25T08:41:38.625Z,-0.90
2019-01-25T08:44:07.654Z,-0.90
2019-01-25T08:46:36.603Z,-0.80
2019-01-25T08:49:06.094Z,-0.80
2019-01-25T08:51:38.567Z,-0.70
2019-01-25T08:54:09.080Z,-0.70
2019-01-25T08:56:38.397Z,-0.70
2019-01-25T08:59:07.658Z,-0.70
2019-01-25T09:01:36.720Z,-0.70
2019-01-25T09:04:10.764Z,-0.70
2019-01-25T09:06:39.725Z,-0.60
2019-01-25T09:09:11.155Z,-0.60
2019-01-25T09:11:43.976Z,-0.60
2019-01-25T09:14:12.927Z,-0.50
2019-01-25T09:16:41.926Z,-0.50
2019-01-25T09:19:10.862Z,-0.40
2019-01-25T09:22:10.292Z,-0.40
2019-01-25T09:24:39.657Z,-0.40
2019-01-25T09:27:09.933Z,-0.30
2019-01-25T09:29:38.863Z,-0.30
2019-01-25T09:32:07.903Z,-0.30
2019-01-25T09:34:40.996Z,-0.20
2019-01-25T09:37:10.290Z,-0.20
2019-01-25T09:39:39.491Z,-0.10
2019-01-25T09:42:08.499Z,-0.10
2019-01-25T09:44:38.163Z,-0.10
2019-01-25T09:47:07.097Z,0.00
2019-01-25T09:49:38.555Z,0.10
2019-01-25T09:52:07.879Z,0.10
2019-01-25T09:54:37.157Z,0.20
2019-01-25T09:57:10.932Z,0.30
2019-01-25T09:59:40.330Z,0.30
2019-01-25T10:02:09.361Z,0.30
2019-01-25T10:04:39.145Z,0.40
2019-01-25T10:07:08.402Z,0.40
2019-01-25T10:09:37.304Z,0.50
2019-01-25T10:12:06.644Z,0.50
2019-01-25T10:14:38.021Z,0.40
2019-01-25T10:17:07.756Z,0.50
2019-01-25T10:19:40.323Z,0.50
2019-01-25T10:22:12.580Z,0.50
2019-01-25T10:24:41.818Z,0.60
2019-01-25T10:27:11.410Z,0.60
2019-01-25T10:29:43.632Z,0.60
2019-01-25T10:32:14.180Z,0.70
2019-01-25T10:34:43.493Z,0.70
2019-01-25T10:37:12.542Z,0.80
2019-01-25T10:39:41.868Z,0.70
2019-01-25T10:42:11.522Z,0.80
2019-01-25T10:44:41.411Z,0.80
2019-01-25T10:47:10.325Z,0.80
2019-01-25T10:49:42.300Z,0.90
2019-01-25T10:52:12.654Z,0.90
2019-01-25T10:54:45.103Z,0.90
2019-01-25T10:57:14.081Z,0.80
2019-01-25T10:59:43.006Z,0.80
2019-01-25T11:02:12.225Z,0.80
2019-01-25T11:04:41.930Z,0.90
2019-01-25T11:07:11.026Z,0.80
2019-01-25T11:09:39.939Z,0.80
2019-01-25T11:12:08.966Z,0.90
2019-01-25T11:14:37.985Z,0.90
2019-01-25T11:17:07.034Z,0.90
2019-01-25T11:19:36.894Z,0.90
2019-01-25T11:22:05.831Z,0.90
2019-01-25T11:24:34.818Z,1.00
2019-01-25T11:27:03.838Z,1.00
2019-01-25T11:29:32.968Z,1.00
2019-01-25T11:32:04.299Z,1.10
2019-01-25T11:34:37.001Z,1.10
2019-01-25T11:37:05.982Z,1.20
2019-01-25T11:39:35.190Z,1.20
2019-01-25T11:42:04.542Z,1.20
2019-01-25T11:44:36.547Z,1.20
2019-01-25T11:47:05.990Z,1.20
2019-01-25T11:49:38.000Z,1.20
2019-01-25T11:52:06.920Z,1.30
2019-01-25T11:54:36.950Z,1.30
2019-01-25T11:57:06.732Z,1.30
2019-01-25T12:02:10.384Z,1.30
2019-01-25T12:04:39.410Z,1.30
2019-01-25T12:07:08.585Z,1.30
2019-01-25T12:09:37.579Z,1.40
2019-01-25T12:12:07.146Z,1.40
2019-01-25T12:14:36.362Z,1.40
2019-01-25T12:17:05.921Z,1.40
2019-01-25T12:19:35.114Z,1.40
2019-01-25T12:22:04.649Z,1.50
2019-01-25T12:24:34.484Z,1.50
2019-01-25T12:27:03.687Z,1.40
2019-01-25T12:29:32.846Z,1.50
2019-01-25T12:32:02.091Z,1.50
2019-01-25T12:34:30.976Z,1.50
2019-01-25T12:37:04.612Z,1.50
2019-01-25T12:39:32.326Z,1.60
2019-01-25T12:42:01.384Z,1.60
2019-01-25T12:44:33.322Z,1.60
2019-01-25T12:47:02.265Z,1.60
2019-01-25T12:49:32.010Z,1.70
2019-01-25T12:52:08.569Z,1.60
2019-01-25T12:54:37.971Z,1.70
2019-01-25T12:57:07.010Z,1.70
2019-01-25T12:59:36.277Z,1.70
2019-01-25T13:02:05.627Z,1.70
2019-01-25T13:04:41.394Z,1.80
2019-01-25T13:07:11.187Z,1.70
2019-01-25T13:09:41.954Z,1.80
2019-01-25T13:12:11.286Z,1.80
2019-01-25T13:14:41.495Z,1.80
2019-01-25T13:17:10.906Z,1.70
2019-01-25T13:19:41.517Z,1.70
2019-01-25T13:22:10.496Z,1.70
2019-01-25T13:24:39.359Z,1.70
2019-01-25T13:27:12.296Z,1.70
2019-01-25T13:29:41.519Z,1.70
2019-01-25T13:32:14.540Z,1.80
2019-01-25T13:34:42.273Z,1.80
2019-01-25T13:37:11.293Z,1.80
2019-01-25T13:39:40.316Z,1.80
2019-01-25T13:42:09.543Z,1.80
2019-01-25T13:44:38.459Z,1.80
2019-01-25T13:47:07.445Z,1.80
2019-01-25T13:49:36.404Z,1.90
2019-01-25T13:52:06.670Z,1.90
2019-01-25T13:54:35.859Z,1.90
2019-01-25T13:57:04.775Z,1.90
2019-01-25T13:59:34.518Z,1.90
2019-01-25T14:02:03.510Z,1.80
2019-01-25T14:04:36.986Z,1.90
2019-01-25T14:07:06.006Z,1.90
2019-01-25T14:09:34.877Z,1.90
2019-01-25T14:12:04.626Z,1.90
2019-01-25T14:14:33.637Z,2.00
2019-01-25T14:17:02.647Z,2.00
2019-01-25T14:19:31.580Z,2.00
2019-01-25T14:22:03.752Z,2.00
2019-01-25T14:24:35.875Z,2.00
2019-01-25T14:27:05.275Z,2.00
2019-01-25T14:29:34.922Z,2.00
2019-01-25T14:32:04.526Z,2.00
2019-01-25T14:34:33.462Z,2.10
2019-01-25T14:37:03.227Z,2.10
2019-01-25T14:39:32.210Z,2.10
2019-01-25T14:42:01.438Z,2.10
2019-01-25T14:44:36.795Z,2.10
2019-01-25T14:47:05.697Z,2.10
2019-01-25T14:49:38.272Z,2.10
2019-01-25T14:52:07.270Z,2.10
2019-01-25T14:54:42.299Z,2.10
2019-01-25T14:57:14.599Z,2.10
2019-01-25T14:59:45.876Z,2.10
2019-01-25T15:02:18.098Z,2.20
2019-01-25T15:04:47.262Z,2.20
2019-01-25T15:07:16.407Z,2.20
2019-01-25T15:12:20.754Z,2.30
2019-01-25T15:14:50.462Z,2.30
2019-01-25T15:17:21.535Z,2.40
2019-01-25T15:19:50.462Z,2.40
2019-01-25T15:22:21.000Z,2.40
2019-01-25T15:24:53.024Z,2.40
2019-01-25T15:27:22.699Z,2.50
2019-01-25T15:29:52.041Z,2.50
2019-01-25T15:32:24.145Z,2.50
2019-01-25T15:34:54.818Z,2.50
2019-01-25T15:37:23.892Z,2.50
2019-01-25T15:39:53.299Z,2.50
2019-01-25T15:42:22.697Z,2.50
2019-01-25T15:44:54.092Z,2.50
2019-01-25T15:47:23.446Z,2.50
2019-01-25T15:49:53.809Z,2.50
2019-01-25T15:55:01.442Z,2.50
2019-01-25T15:57:33.738Z,2.50
2019-01-25T16:00:02.819Z,2.50
2019-01-25T16:02:32.236Z,2.50
2019-01-25T16:05:13.011Z,2.50
2019-01-25T16:07:49.852Z,2.50
2019-01-25T16:10:21.121Z,2.60
2019-01-25T16:12:52.055Z,2.60
2019-01-25T16:15:23.886Z,2.60
2019-01-25T16:17:53.216Z,2.60
2019-01-25T16:20:22.242Z,2.60
2019-01-25T16:22:51.745Z,2.60
2019-01-25T16:25:23.460Z,2.60
2019-01-25T16:27:53.098Z,2.70
2019-01-25T16:30:24.564Z,2.70
2019-01-25T16:32:55.914Z,2.70
2019-01-25T16:35:33.629Z,2.70
2019-01-25T16:38:02.310Z,2.70
2019-01-25T16:40:31.353Z,2.70
2019-01-25T16:43:01.420Z,2.70
2019-01-25T16:45:33.851Z,2.70
2019-01-25T16:48:02.862Z,2.70
2019-01-25T16:50:33.074Z,2.80
2019-01-25T16:53:02.985Z,2.80
2019-01-25T16:55:32.767Z,2.80
2019-01-25T16:58:01.696Z,2.80
2019-01-25T17:00:32.823Z,2.90
2019-01-25T17:03:01.745Z,2.80
2019-01-25T17:05:31.346Z,2.90
2019-01-25T17:08:01.448Z,2.90
2019-01-25T17:10:31.568Z,3.00
2019-01-25T17:13:01.415Z,3.00
2019-01-25T17:15:30.721Z,3.00
2019-01-25T17:18:00.236Z,3.00
2019-01-25T17:20:32.744Z,3.00
2019-01-25T17:23:01.726Z,3.00
2019-01-25T17:25:30.685Z,3.00
2019-01-25T17:28:00.837Z,3.00
2019-01-25T17:30:32.504Z,3.00
2019-01-25T17:33:02.674Z,3.10
2019-01-25T17:35:32.216Z,3.10
2019-01-25T17:38:01.498Z,3.10
2019-01-25T17:40:46.744Z,3.20
2019-01-25T17:43:19.528Z,3.20
2019-01-25T17:45:48.587Z,3.20
2019-01-25T17:48:17.516Z,3.30
2019-01-25T17:50:46.499Z,3.30
2019-01-25T17:53:18.825Z,3.30
2019-01-25T17:55:47.717Z,3.30
2019-01-25T17:58:16.744Z,3.40
2019-01-25T18:00:50.252Z,3.50
2019-01-25T18:03:19.296Z,3.60
2019-01-25T18:05:49.742Z,3.60
2019-01-25T18:08:24.689Z,3.60
2019-01-25T18:10:57.179Z,3.60
2019-01-25T18:13:54.576Z,3.70
2019-01-25T18:16:28.999Z,3.70
2019-01-25T18:19:00.242Z,3.80
2019-01-25T18:21:31.969Z,3.90
2019-01-25T18:24:03.426Z,4.10
2019-01-25T18:26:33.558Z,4.10
2019-01-25T18:29:14.857Z,4.20
2019-01-25T18:31:43.840Z,4.20
2019-01-25T18:34:13.037Z,4.20
2019-01-25T18:36:44.331Z,4.30
2019-01-25T18:39:13.512Z,4.40
2019-01-25T18:41:42.901Z,4.50
2019-01-25T18:44:11.853Z,4.70
2019-01-25T18:46:41.264Z,4.80
2019-01-25T18:49:16.045Z,4.80
2019-01-25T18:51:51.674Z,5.00
2019-01-25T18:54:20.650Z,5.10
2019-01-25T18:56:51.117Z,5.30
2019-01-25T18:59:20.509Z,5.40
2019-01-25T19:01:49.810Z,5.50
2019-01-25T19:04:21.792Z,5.60
2019-01-25T19:06:51.731Z,5.70
2019-01-25T19:09:20.802Z,5.90
2019-01-25T19:11:53.147Z,6.00
2019-01-25T19:14:22.925Z,6.20
2019-01-25T19:16:52.170Z,6.20
2019-01-25T19:19:22.283Z,6.30
2019-01-25T19:21:51.142Z,6.30
2019-01-25T19:24:20.077Z,6.40
2019-01-25T19:26:49.106Z,6.60
2019-01-25T19:29:20.490Z,6.90
2019-01-25T19:31:49.813Z,7.10
2019-01-25T19:34:19.534Z,7.30
2019-01-25T19:36:48.594Z,7.20
2019-01-25T19:39:17.659Z,7.30
2019-01-25T19:41:46.676Z,7.30
2019-01-25T19:44:16.189Z,7.40
2019-01-25T19:46:45.529Z,7.40
2019-01-25T19:49:14.550Z,7.40
2019-01-25T19:51:43.941Z,7.40
2019-01-25T19:54:14.857Z,7.40
2019-01-25T19:56:44.276Z,7.50
2019-01-25T19:59:13.607Z,7.50
2019-01-25T20:01:42.961Z,7.50
2019-01-25T20:04:15.449Z,7.50
2019-01-25T20:06:44.583Z,7.60
2019-01-25T20:09:14.664Z,7.60
2019-01-25T20:11:43.751Z,7.60
2019-01-25T20:14:13.165Z,7.70
2019-01-25T20:16:45.261Z,7.70
2019-01-25T20:19:15.447Z,7.70
2019-01-25T20:21:44.795Z,7.70
2019-01-25T20:24:13.842Z,7.70
2019-01-25T20:26:43.795Z,7.70
2019-01-25T20:29:13.067Z,7.80
2019-01-25T20:31:42.293Z,7.80
2019-01-25T20:34:11.544Z,7.80
2019-01-25T20:36:41.069Z,7.80
2019-01-25T20:39:11.947Z,7.90
2019-01-25T20:41:41.800Z,7.90
2019-01-25T20:44:14.170Z,7.90
2019-01-25T20:46:43.528Z,7.90
2019-01-25T20:49:13.859Z,8.00
2019-01-25T20:51:44.708Z,8.00
2019-01-25T20:54:14.012Z,8.00
2019-01-25T20:56:44.964Z,8.00
2019-01-25T20:59:15.969Z,8.00
2019-01-25T21:01:45.010Z,8.00
2019-01-25T21:04:14.714Z,8.00
2019-01-25T21:06:43.770Z,8.00
2019-01-25T21:09:15.690Z,8.00
2019-01-25T21:11:47.895Z,7.90
2019-01-25T21:14:17.283Z,7.90
2019-01-25T21:16:46.725Z,7.90
2019-01-25T21:19:17.063Z,7.90
2019-01-25T21:21:48.649Z,7.90
2019-01-25T21:24:17.975Z,7.90
2019-01-25T21:26:47.424Z,7.80
2019-01-25T21:29:16.675Z,7.90
2019-01-25T21:31:45.898Z,7.90
2019-01-25T21:34:15.803Z,7.80
2019-01-25T21:36:45.211Z,7.90
2019-01-25T21:39:16.913Z,7.80
2019-01-25T21:41:49.068Z,7.80
2019-01-25T21:44:18.228Z,7.90
2019-01-25T21:46:50.651Z,7.90
2019-01-25T21:49:20.112Z,7.90
2019-01-25T21:51:50.904Z,7.90
2019-01-25T21:54:23.706Z,7.90
2019-01-25T21:56:54.167Z,7.90
2019-01-25T21:59:23.919Z,7.90
2019-01-25T22:01:53.547Z,7.90
2019-01-25T22:04:23.520Z,8.00
2019-01-25T22:06:53.948Z,8.00
2019-01-25T22:09:23.421Z,8.00
2019-01-25T22:11:53.424Z,8.00
2019-01-25T22:14:23.674Z,8.10
2019-01-25T22:16:52.981Z,8.10
2019-01-25T22:19:22.112Z,8.00
2019-01-25T22:21:51.161Z,8.00
2019-01-25T22:24:20.288Z,8.00
2019-01-25T22:26:52.792Z,8.10
2019-01-25T22:29:23.118Z,8.00
2019-01-25T22:31:52.438Z,8.10
2019-01-25T22:34:21.828Z,8.10
2019-01-25T22:36:51.784Z,8.00
2019-01-25T22:39:20.867Z,8.00
2019-01-25T22:41:50.239Z,8.10
2019-01-25T22:44:19.384Z,8.10
2019-01-25T22:46:49.209Z,8.00
2019-01-25T22:49:18.691Z,8.00
2019-01-25T22:51:47.705Z,8.00
2019-01-25T22:54:17.410Z,8.00
2019-01-25T22:56:46.431Z,8.00
2019-01-25T22:59:15.886Z,8.00
2019-01-25T23:01:45.790Z,8.00
2019-01-25T23:04:43.956Z,8.00
2019-01-25T23:07:22.896Z,7.90
2019-01-25T23:09:57.195Z,7.90
2019-01-25T23:12:26.222Z,7.90
2019-01-25T23:14:55.234Z,7.90
2019-01-25T23:17:24.668Z,7.90
2019-01-25T23:19:53.943Z,7.90
2019-01-25T23:22:24.615Z,7.90
2019-01-25T23:27:28.540Z,7.90
2019-01-25T23:29:57.550Z,7.90
2019-01-25T23:32:27.161Z,7.90
2019-01-25T23:34:56.486Z,7.90
2019-01-25T23:37:25.596Z,7.90
2019-01-25T23:39:54.584Z,7.90
2019-01-25T23:42:23.792Z,7.90
2019-01-25T23:44:52.756Z,8.00
2019-01-25T23:47:21.646Z,8.00
2019-01-25T23:49:51.044Z,8.00
2019-01-25T23:52:21.120Z,7.90
2019-01-25T23:54:51.184Z,7.90
2019-01-25T23:57:23.162Z,7.90
2019-01-25T23:59:52.355Z,7.90
